createdAt,value
2022-11-17T08:45:48.886Z,3.30
2022-11-17T08:48:15.948Z,3.58
2022-11-17T08:50:42.809Z,3.33
2022-11-17T08:53:14.258Z,2.65
2022-11-17T08:55:41.620Z,2.35
2022-11-17T08:58:09.665Z,2.65
2022-11-17T09:00:36.576Z,1.98
2022-11-17T09:03:10.613Z,2.13
2022-11-17T09:05:44.031Z,2.38
2022-11-17T09:08:43.393Z,1.77
2022-11-17T09:10:58.700Z,2.60
2022-11-17T09:13:25.624Z,2.00
2022-11-17T09:15:52.289Z,2.60
2022-11-17T09:18:19.356Z,2.22
2022-11-17T09:20:46.437Z,2.58
2022-11-17T09:23:13.410Z,2.25
2022-11-17T09:25:40.156Z,2.67
2022-11-17T09:28:07.123Z,2.20
2022-11-17T09:30:33.993Z,2.65
2022-11-17T09:33:01.136Z,2.70
2022-11-17T09:35:27.783Z,2.88
2022-11-17T09:37:59.664Z,3.10
2022-11-17T09:40:26.457Z,2.85
2022-11-17T09:42:53.597Z,2.90
2022-11-17T09:45:27.950Z,3.17
2022-11-17T09:48:38.820Z,2.83
2022-11-17T09:50:57.055Z,2.50
2022-11-17T09:53:40.486Z,2.92
2022-11-17T09:56:10.051Z,2.25
2022-11-17T09:58:50.244Z,2.70
2022-11-17T10:01:19.570Z,2.63
2022-11-17T10:03:48.747Z,2.75
2022-11-17T10:06:21.505Z,2.70
2022-11-17T10:11:37.820Z,2.80
2022-11-17T10:14:17.015Z,2.20
2022-11-17T10:16:55.054Z,2.30
2022-11-17T10:19:21.996Z,2.67
2022-11-17T10:22:01.242Z,2.65
2022-11-17T10:24:42.418Z,3.00
2022-11-17T10:27:17.817Z,2.75
2022-11-17T10:29:58.080Z,2.50
2022-11-17T10:32:25.757Z,3.33
2022-11-17T10:34:54.155Z,2.55
2022-11-17T10:37:28.717Z,2.65
2022-11-17T10:40:23.651Z,2.70
2022-11-17T10:43:02.993Z,2.80
2022-11-17T10:45:30.165Z,2.60
2022-11-17T10:48:30.134Z,2.65
2022-11-17T10:51:02.672Z,2.75
2022-11-17T10:53:34.978Z,2.58
2022-11-17T10:56:05.284Z,2.63
2022-11-17T10:58:52.653Z,2.58
2022-11-17T11:01:32.001Z,2.70
2022-11-17T11:03:58.761Z,2.65
2022-11-17T11:06:29.575Z,3.38
2022-11-17T11:09:18.702Z,2.80
2022-11-17T11:11:49.847Z,2.70
2022-11-17T11:14:41.204Z,3.20
2022-11-17T11:17:17.894Z,3.15
2022-11-17T11:19:52.540Z,3.15
2022-11-17T11:23:00.712Z,2.13
2022-11-17T11:25:41.080Z,2.03
2022-11-17T11:28:52.807Z,3.00
2022-11-17T11:31:33.814Z,2.95
2022-11-17T11:34:22.076Z,10.25
2022-11-17T11:36:56.600Z,24.88
2022-11-17T11:40:01.621Z,16.58
2022-11-17T11:42:37.173Z,32.13
2022-11-17T11:45:21.667Z,32.90
2022-11-17T11:48:00.156Z,50.10
2022-11-17T11:50:31.933Z,73.78
2022-11-17T11:53:12.924Z,48.88
2022-11-17T11:55:41.787Z,30.00
2022-11-17T11:58:24.697Z,27.75
2022-11-17T12:03:49.988Z,16.08
2022-11-17T12:06:40.154Z,10.25
2022-11-17T12:09:28.634Z,17.25
2022-11-17T12:12:03.073Z,14.35
2022-11-17T12:14:35.332Z,14.50
2022-11-17T12:17:02.196Z,6.70
2022-11-17T12:19:44.358Z,9.00
2022-11-17T12:22:24.046Z,10.77
2022-11-17T12:24:57.444Z,7.50
2022-11-17T12:27:33.399Z,7.55
2022-11-17T12:30:05.723Z,7.10
2022-11-17T12:32:44.836Z,5.63
2022-11-17T12:35:41.429Z,6.70
2022-11-17T12:38:14.215Z,8.70
2022-11-17T12:40:51.049Z,6.00
2022-11-17T12:43:28.028Z,11.70
2022-11-17T12:46:19.089Z,16.20
2022-11-17T12:49:04.347Z,11.10
2022-11-17T12:51:50.717Z,10.80
2022-11-17T12:54:25.146Z,9.45
2022-11-17T12:56:51.788Z,9.20
2022-11-17T12:59:43.689Z,12.93
2022-11-17T13:02:47.602Z,6.55
2022-11-17T13:05:20.808Z,10.50
2022-11-17T13:07:47.909Z,12.50
2022-11-17T13:10:29.590Z,10.27
2022-11-17T13:13:18.528Z,4.53
2022-11-17T13:15:49.608Z,11.63
2022-11-17T13:18:36.205Z,14.45
2022-11-17T13:21:04.124Z,9.73
2022-11-17T13:23:32.705Z,8.00
2022-11-17T13:26:21.019Z,6.47
2022-11-17T13:28:48.999Z,4.65
2022-11-17T13:31:21.374Z,4.38
2022-11-17T13:33:59.576Z,4.18
2022-11-17T13:36:27.326Z,3.17
2022-11-17T13:38:57.353Z,3.88
2022-11-17T13:41:25.791Z,4.03
2022-11-17T13:43:53.979Z,4.20
2022-11-17T13:46:21.365Z,4.20
2022-11-17T13:48:50.032Z,4.70
2022-11-17T13:51:19.784Z,4.72
2022-11-17T13:53:55.824Z,4.32
2022-11-17T13:56:43.030Z,11.90
2022-11-17T13:59:18.507Z,11.90
2022-11-17T14:01:45.610Z,5.80
2022-11-17T14:04:20.092Z,7.20
2022-11-17T14:06:57.030Z,6.22
2022-11-17T14:09:25.256Z,6.20
2022-11-17T14:11:52.910Z,5.60
2022-11-17T14:14:28.137Z,6.25
2022-11-17T14:16:55.236Z,7.05
2022-11-17T14:19:26.735Z,5.15
2022-11-17T14:22:27.665Z,4.97
2022-11-17T14:24:57.446Z,5.13
2022-11-17T14:27:27.447Z,6.55
2022-11-17T14:29:54.087Z,7.80
2022-11-17T14:32:21.349Z,7.22
